Time,TemperatureF,DewpointF,PressureIn,WindDirection,WindDirectionDegrees,WindSpeedMPH,WindSpeedGustMPH,Humidity,HourlyPrecipIn,Conditions,Clouds,dailyrainin,SoftwareType,DateUTC
2016-09-30 00:14:00,48.6,44.0,29.74,SW,225,0.0,-999.0,84,-99.99,,,0.00,,2016-09-30 07:14:00,
2016-09-30 00:30:00,48.0,43.7,29.73,SSW,202,0.0,-999.0,85,-99.99,,,0.00,,2016-09-30 07:30:00,
2016-09-30 00:45:00,47.5,43.2,29.74,SW,225,0.0,-999.0,85,-99.99,,,0.00,,2016-09-30 07:45:00,
2016-09-30 01:00:00,47.5,43.8,29.73,SSE,157,0.0,-999.0,87,-99.99,,,0.00,,2016-09-30 08:00:00,
2016-09-30 01:15:00,47.3,43.3,29.74,SSW,202,0.0,-999.0,86,-99.99,,,0.00,,2016-09-30 08:15:00,
2016-09-30 01:30:00,46.0,42.3,29.74,SW,225,0.0,-999.0,87,-99.99,,,0.00,,2016-09-30 08:30:00,
2016-09-30 01:45:00,45.5,42.2,29.74,SSW,202,0.0,-999.0,88,-99.99,,,0.00,,2016-09-30 08:45:00,
2016-09-30 02:00:00,45.1,42.3,29.74,SW,225,0.0,-999.0,90,-99.99,,,0.00,,2016-09-30 09:00:00,
2016-09-30 02:15:00,45.1,42.3,29.74,SW,225,0.0,-999.0,90,-99.99,,,0.00,,2016-09-30 09:15:00,
2016-09-30 02:30:00,45.0,42.2,29.74,SW,225,0.0,-999.0,90,-99.99,,,0.00,,2016-09-30 09:30:00,
2016-09-30 02:45:00,45.3,42.5,29.74,SSW,202,0.0,-999.0,90,-99.99,,,0.00,,2016-09-30 09:45:00,
2016-09-30 03:04:00,44.6,41.8,29.74,SSW,202,0.0,-999.0,90,-99.99,,,0.00,,2016-09-30 10:04:00,
2016-09-30 03:19:00,44.1,41.6,29.74,SW,225,0.0,-999.0,91,-99.99,,,0.00,,2016-09-30 10:19:00,
2016-09-30 03:34:00,43.9,41.4,29.74,SW,225,0.0,-999.0,91,-99.99,,,0.00,,2016-09-30 10:34:00,
2016-09-30 03:49:00,43.5,41.0,29.74,SW,225,0.0,-999.0,91,-99.99,,,0.00,,2016-09-30 10:49:00,
2016-09-30 04:04:00,43.2,40.5,29.74,SW,225,0.0,-999.0,90,-99.99,,,0.00,,2016-09-30 11:04:00,
2016-09-30 04:19:00,42.8,40.6,29.74,SW,225,0.0,-999.0,92,-99.99,,,0.00,,2016-09-30 11:19:00,
2016-09-30 04:34:00,42.6,40.4,29.73,SW,225,0.0,-999.0,92,-99.99,,,0.00,,2016-09-30 11:34:00,
2016-09-30 04:49:00,42.4,40.5,29.73,SW,225,0.0,-999.0,93,-99.99,,,0.00,,2016-09-30 11:49:00,
2016-09-30 05:05:00,42.4,40.8,29.73,SW,225,0.0,-999.0,94,-99.99,,,0.00,,2016-09-30 12:05:00,
2016-09-30 05:20:00,42.3,40.7,29.73,SW,225,0.0,-999.0,94,-99.99,,,0.00,,2016-09-30 12:20:00,
2016-09-30 05:35:00,41.9,40.3,29.73,SW,225,0.0,-999.0,94,-99.99,,,0.00,,2016-09-30 12:35:00,
2016-09-30 05:50:00,41.9,40.3,29.73,SW,225,0.0,-999.0,94,-99.99,,,0.00,,2016-09-30 12:50:00,
2016-09-30 06:06:00,41.9,40.3,29.73,SSW,202,0.0,-999.0,94,-99.99,,,0.00,,2016-09-30 13:06:00,
2016-09-30 06:21:00,43.0,41.7,29.73,SW,225,0.0,-999.0,95,-99.99,,,0.00,,2016-09-30 13:21:00,
2016-09-30 06:36:00,41.9,40.6,29.73,SSW,202,0.0,-999.0,95,-99.99,,,0.00,,2016-09-30 13:36:00,
2016-09-30 06:51:00,41.7,40.1,29.73,SW,225,0.0,-999.0,94,-99.99,,,0.00,,2016-09-30 13:51:00,
2016-09-30 07:06:00,41.9,40.3,29.73,SSW,202,0.0,-999.0,94,-99.99,,,0.00,,2016-09-30 14:06:00,
2016-09-30 07:21:00,41.0,39.4,29.73,SSW,202,0.0,-999.0,94,-99.99,,,0.00,,2016-09-30 14:21:00,
2016-09-30 07:36:00,42.3,40.7,29.73,SW,225,0.0,-999.0,94,-99.99,,,0.00,,2016-09-30 14:36:00,
2016-09-30 07:51:00,43.0,41.4,29.73,South,180,0.0,-999.0,94,-99.99,,,0.00,,2016-09-30 14:51:00,
2016-09-30 08:06:00,44.4,41.7,29.73,South,180,0.0,-999.0,90,-99.99,,,0.00,,2016-09-30 15:06:00,
2016-09-30 08:21:00,44.4,41.9,29.74,WSW,247,0.0,-999.0,91,-99.99,,,0.00,,2016-09-30 15:21:00,
2016-09-30 08:37:00,45.3,42.8,29.73,WSW,247,0.0,-999.0,91,-99.99,,,0.00,,2016-09-30 15:37:00,
2016-09-30 08:52:00,46.9,43.5,29.73,SE,135,0.0,-999.0,88,-99.99,,,0.00,,2016-09-30 15:52:00,
2016-09-30 09:07:00,48.7,44.1,29.73,SSE,157,0.0,-999.0,84,-99.99,,,0.00,,2016-09-30 16:07:00,
2016-09-30 09:22:00,49.3,44.4,29.73,SE,135,0.0,-999.0,83,-99.99,,,0.00,,2016-09-30 16:22:00,
2016-09-30 09:37:00,52.0,45.4,29.73,NNE,22,0.0,-999.0,78,-99.99,,,0.00,,2016-09-30 16:37:00,
2016-09-30 09:52:00,53.1,45.4,29.73,SE,135,3.7,-999.0,75,-99.99,,,0.00,,2016-09-30 16:52:00,
2016-09-30 10:07:00,53.4,45.0,29.72,ESE,112,3.2,-999.0,73,-99.99,,,0.00,,2016-09-30 17:07:00,
2016-09-30 10:22:00,56.1,46.1,29.72,West,270,1.7,-999.0,69,-99.99,,,0.00,,2016-09-30 17:22:00,
2016-09-30 10:37:00,57.7,46.8,29.71,WNW,292,1.7,-999.0,67,-99.99,,,0.00,,2016-09-30 17:37:00,
2016-09-30 10:53:00,57.4,46.5,29.71,NNW,337,2.7,-999.0,67,-99.99,,,0.00,,2016-09-30 17:53:00,
2016-09-30 11:08:00,59.0,46.4,29.70,SW,225,2.7,-999.0,63,-99.99,,,0.00,,2016-09-30 18:08:00,
2016-09-30 11:24:00,58.6,46.0,29.70,SE,135,2.2,-999.0,63,-99.99,,,0.00,,2016-09-30 18:24:00,
2016-09-30 11:39:00,60.8,47.3,29.69,West,270,1.7,-999.0,61,-99.99,,,0.00,,2016-09-30 18:39:00,
2016-09-30 11:54:00,62.6,48.1,29.69,South,180,0.0,-999.0,59,-99.99,,,0.00,,2016-09-30 18:54:00,